createdAt,value
2024-03-03T00:02:06.585Z,33.42
2024-03-03T00:04:35.192Z,35.80
2024-03-03T00:07:04.651Z,40.30
2024-03-03T00:09:34.433Z,40.17
2024-03-03T00:12:02.979Z,39.47
2024-03-03T00:14:31.752Z,38.47
2024-03-03T00:17:05.358Z,38.50
2024-03-03T00:19:34.553Z,35.72
2024-03-03T00:22:06.072Z,33.28
2024-03-03T00:24:34.579Z,34.70
2024-03-03T00:27:03.108Z,32.25
2024-03-03T00:29:31.674Z,37.23
2024-03-03T00:32:04.521Z,40.17
2024-03-03T00:34:34.079Z,33.15
2024-03-03T00:37:02.548Z,37.55
2024-03-03T00:39:31.637Z,36.95
2024-03-03T00:42:00.097Z,34.23
2024-03-03T00:44:39.470Z,37.63
2024-03-03T00:47:13.906Z,33.78
2024-03-03T00:49:50.638Z,33.70
2024-03-03T00:52:22.274Z,34.17
2024-03-03T00:54:50.872Z,37.23
2024-03-03T00:57:19.592Z,30.60
2024-03-03T00:59:48.099Z,35.10
2024-03-03T01:02:20.985Z,38.28
2024-03-03T01:04:54.718Z,36.20
2024-03-03T01:07:23.560Z,33.33
2024-03-03T01:09:52.272Z,36.60
2024-03-03T01:12:26.181Z,36.10
2024-03-03T01:14:54.658Z,33.72
2024-03-03T01:17:24.731Z,32.95
2024-03-03T01:19:53.304Z,105.30
2024-03-03T01:22:26.587Z,72.25
2024-03-03T01:24:58.264Z,55.78
2024-03-03T01:27:42.941Z,52.45
2024-03-03T01:30:12.526Z,88.88
2024-03-03T01:32:42.031Z,56.47
2024-03-03T01:35:10.778Z,77.32
2024-03-03T01:37:39.224Z,53.25
2024-03-03T01:40:08.482Z,43.17
2024-03-03T01:42:36.972Z,95.75
2024-03-03T01:45:05.778Z,65.57
2024-03-03T01:47:35.742Z,68.63
2024-03-03T01:50:05.922Z,47.92
2024-03-03T01:52:34.673Z,51.65
2024-03-03T01:55:03.217Z,71.00
2024-03-03T01:57:32.120Z,62.17
2024-03-03T02:00:01.665Z,62.17
2024-03-03T02:02:41.850Z,44.95
2024-03-03T02:05:12.011Z,36.40
2024-03-03T02:07:40.487Z,80.18
2024-03-03T02:10:10.747Z,88.60
2024-03-03T02:12:41.579Z,116.00
2024-03-03T02:15:10.364Z,49.10
2024-03-03T02:17:39.034Z,36.33
2024-03-03T02:20:10.307Z,30.40
2024-03-03T02:22:39.965Z,42.53
2024-03-03T02:25:08.871Z,46.55
2024-03-03T02:27:37.762Z,67.13
2024-03-03T02:30:06.720Z,40.83
2024-03-03T02:32:35.138Z,36.50
2024-03-03T02:35:03.930Z,115.27
2024-03-03T02:37:32.395Z,67.28
2024-03-03T02:40:04.698Z,90.88
2024-03-03T02:42:36.361Z,60.70
2024-03-03T02:45:14.925Z,34.83
2024-03-03T02:47:44.089Z,32.47
2024-03-03T02:50:12.866Z,36.70
2024-03-03T02:52:41.271Z,31.98
2024-03-03T02:55:11.273Z,36.83
2024-03-03T02:57:43.086Z,33.70
2024-03-03T03:00:14.987Z,33.93
2024-03-03T03:02:43.495Z,32.40
2024-03-03T03:05:12.041Z,33.78
2024-03-03T03:07:41.031Z,41.08
2024-03-03T03:10:11.155Z,35.17
2024-03-03T03:12:39.748Z,36.67
2024-03-03T03:15:08.718Z,31.80
2024-03-03T03:17:37.174Z,32.30
2024-03-03T03:20:06.191Z,35.80
2024-03-03T03:22:34.829Z,32.47
2024-03-03T03:25:03.766Z,33.40
2024-03-03T03:27:33.546Z,32.15
2024-03-03T03:30:01.971Z,35.72
2024-03-03T03:32:35.147Z,34.65
2024-03-03T03:35:04.963Z,33.30
2024-03-03T03:37:33.468Z,37.47
2024-03-03T03:40:59.178Z,37.05
2024-03-03T03:43:27.194Z,33.60
2024-03-03T03:45:56.747Z,40.17
2024-03-03T03:48:30.583Z,36.20
2024-03-03T03:50:59.192Z,30.80
2024-03-03T03:53:27.782Z,32.95
2024-03-03T03:56:07.430Z,34.28
2024-03-03T03:58:37.256Z,32.92
2024-03-03T04:01:05.981Z,30.65
2024-03-03T04:03:34.442Z,33.30
2024-03-03T04:06:03.072Z,37.88
2024-03-03T04:08:31.511Z,33.28
2024-03-03T04:11:00.382Z,36.38
2024-03-03T04:13:28.836Z,34.42
2024-03-03T04:15:58.603Z,33.10
2024-03-03T04:18:31.833Z,30.58
2024-03-03T04:21:00.413Z,32.50
2024-03-03T04:23:30.039Z,32.20
2024-03-03T04:25:58.460Z,30.42
2024-03-03T04:28:27.529Z,36.30
2024-03-03T04:30:55.984Z,30.90
2024-03-03T04:33:25.710Z,31.38
2024-03-03T04:35:54.163Z,32.42
2024-03-03T04:38:22.620Z,32.40
2024-03-03T04:40:51.059Z,34.53
2024-03-03T04:43:19.578Z,31.00
2024-03-03T04:45:47.982Z,29.63
2024-03-03T04:48:16.677Z,27.38
2024-03-03T04:50:48.102Z,29.80
2024-03-03T04:53:17.022Z,29.33
2024-03-03T04:55:45.490Z,28.48
2024-03-03T04:58:14.018Z,30.63
2024-03-03T05:00:42.600Z,30.17
2024-03-03T05:03:11.073Z,30.50
2024-03-03T05:05:39.716Z,24.33
2024-03-03T05:08:10.870Z,26.98
2024-03-03T05:10:39.696Z,29.42
2024-03-03T05:13:08.209Z,28.88
2024-03-03T05:15:36.637Z,27.10
2024-03-03T05:18:05.784Z,28.77
2024-03-03T05:20:34.227Z,27.85
2024-03-03T05:23:02.679Z,25.63
2024-03-03T05:25:32.163Z,32.85
2024-03-03T05:28:00.613Z,27.17
2024-03-03T05:30:29.312Z,26.27
2024-03-03T05:32:57.853Z,23.13
2024-03-03T05:35:26.293Z,25.55
2024-03-03T05:37:54.686Z,28.35
2024-03-03T05:40:23.160Z,27.02
2024-03-03T05:42:53.151Z,46.20
2024-03-03T05:45:21.779Z,31.67
2024-03-03T05:47:50.275Z,31.17
2024-03-03T05:50:18.818Z,30.05
2024-03-03T05:52:47.233Z,35.28
2024-03-03T05:55:15.720Z,36.23
2024-03-03T05:57:44.169Z,27.25
2024-03-03T06:00:15.682Z,25.00
2024-03-03T06:02:44.115Z,24.52
2024-03-03T06:05:12.518Z,33.40
2024-03-03T06:07:40.947Z,39.20
2024-03-03T06:10:09.772Z,33.45
2024-03-03T06:12:38.310Z,38.63
2024-03-03T06:15:07.163Z,25.73
2024-03-03T06:17:39.140Z,23.20
2024-03-03T06:20:11.758Z,40.90
2024-03-03T06:22:40.274Z,25.30
2024-03-03T06:25:10.352Z,30.05
2024-03-03T06:27:38.824Z,31.55
2024-03-03T06:30:10.610Z,36.30
2024-03-03T06:32:40.375Z,21.13
2024-03-03T06:35:11.804Z,48.70
2024-03-03T06:37:40.357Z,23.65
2024-03-03T06:40:10.623Z,28.23
2024-03-03T06:42:41.067Z,26.05
2024-03-03T06:45:10.113Z,45.37
2024-03-03T06:47:38.779Z,63.88
2024-03-03T06:50:09.463Z,46.88
2024-03-03T06:52:37.859Z,26.23
2024-03-03T06:55:07.389Z,42.13
2024-03-03T06:57:35.841Z,24.60
2024-03-03T07:00:04.602Z,23.30
2024-03-03T07:02:46.907Z,23.63
2024-03-03T07:05:16.871Z,29.10
2024-03-03T07:07:45.379Z,25.02
2024-03-03T07:10:13.798Z,46.73
2024-03-03T07:12:42.289Z,51.05
2024-03-03T07:15:16.548Z,28.27
2024-03-03T07:17:45.191Z,23.20
2024-03-03T07:20:13.979Z,21.13
2024-03-03T07:22:43.815Z,23.83
2024-03-03T07:25:12.277Z,29.17
2024-03-03T07:27:40.753Z,28.30
2024-03-03T07:30:09.804Z,22.98
2024-03-03T07:32:39.605Z,34.63
2024-03-03T07:35:09.586Z,34.33
2024-03-03T07:37:39.103Z,21.58
2024-03-03T07:40:10.958Z,20.23
2024-03-03T07:42:39.424Z,27.02
2024-03-03T07:45:08.185Z,22.70
2024-03-03T07:47:36.603Z,24.20
2024-03-03T07:50:06.102Z,22.05
2024-03-03T07:52:34.559Z,28.25
2024-03-03T07:55:03.273Z,23.45
2024-03-03T07:57:33.161Z,20.35
2024-03-03T08:00:01.594Z,23.80
2024-03-03T08:02:30.088Z,22.98
2024-03-03T08:04:58.585Z,22.13
2024-03-03T08:07:27.275Z,25.67
2024-03-03T08:09:55.850Z,24.63
2024-03-03T08:12:25.002Z,23.63
2024-03-03T08:14:54.822Z,25.48
2024-03-03T08:17:23.332Z,23.63
2024-03-03T08:19:51.825Z,28.77
2024-03-03T08:22:20.315Z,24.58
2024-03-03T08:24:48.825Z,27.30
2024-03-03T08:27:17.246Z,26.38
2024-03-03T08:29:45.665Z,26.17
2024-03-03T08:32:15.470Z,27.23
2024-03-03T08:34:43.986Z,23.92
2024-03-03T08:37:12.475Z,24.17
2024-03-03T08:39:41.068Z,26.85
2024-03-03T08:42:09.559Z,25.65
2024-03-03T08:44:37.956Z,25.17
2024-03-03T08:47:06.591Z,24.33
2024-03-03T08:49:36.382Z,27.90
2024-03-03T08:52:07.047Z,28.02
2024-03-03T08:54:35.543Z,27.90
2024-03-03T08:57:05.713Z,25.63
2024-03-03T08:59:35.366Z,29.40
2024-03-03T09:02:03.984Z,26.60
2024-03-03T09:04:39.272Z,24.67
2024-03-03T09:07:10.108Z,24.10
2024-03-03T09:09:41.617Z,26.50
2024-03-03T09:12:11.942Z,26.90
2024-03-03T09:14:40.391Z,26.13
2024-03-03T09:17:08.852Z,25.83
2024-03-03T09:19:37.290Z,27.63
2024-03-03T09:22:06.140Z,28.90
2024-03-03T09:24:35.960Z,25.52
2024-03-03T09:27:04.396Z,24.50
2024-03-03T09:29:32.915Z,26.73
2024-03-03T09:32:01.371Z,25.08
2024-03-03T09:34:29.862Z,26.77
2024-03-03T09:36:59.753Z,24.30
2024-03-03T09:39:28.231Z,24.07
2024-03-03T09:42:00.014Z,27.52
2024-03-03T09:44:29.215Z,25.25
2024-03-03T09:46:59.306Z,23.30
2024-03-03T09:49:27.782Z,27.88
2024-03-03T09:51:59.165Z,27.37
2024-03-03T09:54:27.745Z,25.45
2024-03-03T09:57:00.179Z,24.58
2024-03-03T09:59:28.688Z,23.85
2024-03-03T10:01:58.073Z,25.67
2024-03-03T10:04:32.733Z,29.37
2024-03-03T10:07:02.368Z,23.17
2024-03-03T10:09:31.699Z,28.23
2024-03-03T10:12:01.731Z,25.45
2024-03-03T10:14:30.529Z,24.98
2024-03-03T10:16:58.957Z,23.50
2024-03-03T10:19:30.954Z,22.05
2024-03-03T10:22:00.687Z,23.67
2024-03-03T10:24:30.647Z,23.30
2024-03-03T10:27:01.879Z,24.30
2024-03-03T10:29:33.164Z,25.30
2024-03-03T10:32:09.813Z,24.35
2024-03-03T10:34:38.328Z,23.13
2024-03-03T10:37:06.818Z,22.75
2024-03-03T10:39:35.619Z,22.73
2024-03-03T10:42:10.205Z,21.87
2024-03-03T10:44:38.756Z,19.70
2024-03-03T10:47:08.349Z,22.50
2024-03-03T10:49:36.830Z,20.83
2024-03-03T10:52:05.541Z,22.40
2024-03-03T10:54:34.202Z,20.37
2024-03-03T10:57:03.243Z,20.05
2024-03-03T10:59:33.612Z,19.88
2024-03-03T11:02:03.692Z,20.00
2024-03-03T11:04:33.936Z,19.73
2024-03-03T11:07:05.260Z,19.83
2024-03-03T11:09:34.038Z,19.60
2024-03-03T11:12:03.096Z,21.00
2024-03-03T11:14:34.614Z,21.10
2024-03-03T11:17:07.135Z,19.02
2024-03-03T11:19:42.311Z,22.53
2024-03-03T11:22:20.171Z,19.17
2024-03-03T11:24:55.997Z,19.92
2024-03-03T11:27:25.651Z,17.23
2024-03-03T11:29:55.572Z,17.60
2024-03-03T11:32:25.557Z,18.00
2024-03-03T11:34:54.818Z,22.33
2024-03-03T11:37:24.083Z,17.05
2024-03-03T11:39:53.221Z,19.95
2024-03-03T11:42:22.305Z,20.98
2024-03-03T11:44:51.937Z,19.13
2024-03-03T11:47:25.036Z,19.55
2024-03-03T11:49:53.755Z,20.92
2024-03-03T11:52:42.846Z,20.15
2024-03-03T11:55:12.097Z,20.23
2024-03-03T11:57:42.230Z,20.87
2024-03-03T12:00:15.029Z,21.65
2024-03-03T12:02:45.156Z,17.75
2024-03-03T12:05:14.357Z,20.42
2024-03-03T12:07:44.596Z,18.10
2024-03-03T12:10:17.299Z,18.13
2024-03-03T12:12:49.574Z,16.85
2024-03-03T12:15:19.940Z,18.58
2024-03-03T12:17:54.318Z,14.75
2024-03-03T12:20:25.846Z,15.20
2024-03-03T12:22:54.870Z,16.23
2024-03-03T12:25:24.119Z,14.57
2024-03-03T12:27:54.143Z,16.85
2024-03-03T12:30:24.621Z,14.20
2024-03-03T12:32:57.368Z,15.32
2024-03-03T12:35:27.659Z,13.73
2024-03-03T12:37:56.674Z,12.75
2024-03-03T12:40:26.478Z,14.15
2024-03-03T12:42:55.183Z,12.82
2024-03-03T12:45:23.682Z,13.10
2024-03-03T12:47:52.128Z,14.80
2024-03-03T12:50:22.390Z,13.02
2024-03-03T12:52:59.339Z,13.07
2024-03-03T12:55:44.759Z,14.13
2024-03-03T12:58:14.351Z,11.93
2024-03-03T13:00:42.901Z,12.00
2024-03-03T13:03:11.481Z,12.07
2024-03-03T13:05:40.942Z,10.10
2024-03-03T13:08:09.611Z,12.45
2024-03-03T13:10:38.151Z,10.15
2024-03-03T13:13:06.771Z,10.23
2024-03-03T13:15:41.067Z,11.50
2024-03-03T13:18:17.024Z,9.95
2024-03-03T13:20:47.034Z,10.88
2024-03-03T13:23:16.694Z,10.55
2024-03-03T13:25:45.527Z,9.50
2024-03-03T13:28:14.912Z,11.98
2024-03-03T13:30:43.657Z,10.30
2024-03-03T13:33:12.250Z,9.15
2024-03-03T13:35:40.834Z,8.40
2024-03-03T13:38:10.645Z,9.73
2024-03-03T13:40:39.090Z,8.18
2024-03-03T13:43:07.568Z,8.23
2024-03-03T13:45:36.066Z,9.48
2024-03-03T13:48:13.137Z,8.93
2024-03-03T13:50:42.193Z,8.67
2024-03-03T13:53:12.292Z,9.85
2024-03-03T13:55:43.219Z,10.52
2024-03-03T13:58:11.810Z,9.18
2024-03-03T14:00:40.853Z,8.57
2024-03-03T14:03:09.632Z,8.67
2024-03-03T14:05:38.170Z,8.15
2024-03-03T14:08:07.659Z,8.38
2024-03-03T14:10:37.179Z,8.88
2024-03-03T14:13:06.796Z,9.20
2024-03-03T14:15:35.380Z,7.17
2024-03-03T14:18:03.948Z,10.48
2024-03-03T14:20:33.765Z,7.68
2024-03-03T14:23:04.822Z,8.05
2024-03-03T14:25:33.288Z,8.70
2024-03-03T14:28:09.673Z,7.70
2024-03-03T14:30:41.873Z,7.25
2024-03-03T14:33:10.541Z,7.68
2024-03-03T14:35:39.084Z,7.60
2024-03-03T14:38:07.647Z,7.30
2024-03-03T14:40:36.254Z,8.67
2024-03-03T14:43:07.500Z,7.45
2024-03-03T14:45:36.389Z,6.30
2024-03-03T14:48:05.263Z,8.25
2024-03-03T14:50:34.417Z,5.45
2024-03-03T14:53:05.232Z,6.83
2024-03-03T14:55:33.948Z,5.80
2024-03-03T14:58:02.445Z,7.18
2024-03-03T15:00:32.307Z,7.88
2024-03-03T15:03:00.717Z,8.77
2024-03-03T15:05:29.105Z,5.10
2024-03-03T15:07:57.471Z,4.63
2024-03-03T15:10:25.985Z,4.22
2024-03-03T15:12:54.455Z,5.20
2024-03-03T15:15:23.998Z,6.60
2024-03-03T15:17:53.998Z,5.73
2024-03-03T15:20:23.555Z,5.03
2024-03-03T15:22:52.159Z,4.03
2024-03-03T15:25:20.603Z,7.57
2024-03-03T15:27:49.107Z,4.55
2024-03-03T15:30:18.121Z,4.60
2024-03-03T15:32:46.742Z,5.07
2024-03-03T15:35:16.680Z,4.97
2024-03-03T15:37:45.249Z,4.07
2024-03-03T15:40:15.251Z,4.38
2024-03-03T15:42:43.834Z,4.27
2024-03-03T15:45:12.660Z,4.45
2024-03-03T15:47:41.389Z,4.50
2024-03-03T15:50:10.251Z,4.93
2024-03-03T15:52:40.170Z,4.60
2024-03-03T15:55:09.127Z,5.00
2024-03-03T15:57:37.736Z,5.70
2024-03-03T16:00:07.671Z,6.85
2024-03-03T16:02:38.211Z,6.32
2024-03-03T16:05:07.866Z,6.85
2024-03-03T16:07:36.934Z,5.00
2024-03-03T16:10:07.994Z,4.72
2024-03-03T16:12:36.528Z,6.50
2024-03-03T16:15:05.092Z,5.93
2024-03-03T16:17:33.614Z,4.80
2024-03-03T16:20:02.156Z,3.80
2024-03-03T16:22:31.055Z,5.90
2024-03-03T16:24:59.737Z,5.85
2024-03-03T16:27:32.733Z,6.22
2024-03-03T16:30:01.199Z,7.30
2024-03-03T16:32:29.708Z,6.27
2024-03-03T16:34:58.155Z,4.32
2024-03-03T16:37:26.810Z,5.53
2024-03-03T16:39:56.447Z,5.10
2024-03-03T16:42:25.151Z,5.38
2024-03-03T16:44:55.091Z,5.50
2024-03-03T16:47:23.640Z,5.85
2024-03-03T16:49:52.116Z,4.45
2024-03-03T16:52:20.668Z,6.20
2024-03-03T16:54:50.616Z,6.88
2024-03-03T16:57:19.323Z,5.77
2024-03-03T16:59:47.756Z,9.77
2024-03-03T17:02:17.609Z,6.30
2024-03-03T17:04:46.202Z,5.60
2024-03-03T17:07:14.780Z,5.43
2024-03-03T17:09:43.299Z,5.30
2024-03-03T17:12:11.768Z,5.38
2024-03-03T17:14:40.215Z,6.35
2024-03-03T17:17:08.881Z,5.93
2024-03-03T17:19:38.917Z,5.70
2024-03-03T17:22:07.541Z,5.73
2024-03-03T17:24:36.114Z,5.28
2024-03-03T17:27:04.884Z,5.60
2024-03-03T17:29:33.483Z,8.88
2024-03-03T17:32:01.926Z,5.63
2024-03-03T17:34:30.371Z,7.17
2024-03-03T17:37:00.355Z,6.85
2024-03-03T17:39:28.899Z,6.63
2024-03-03T17:41:57.407Z,6.55
2024-03-03T17:44:25.980Z,7.45
2024-03-03T17:46:54.357Z,8.90
2024-03-03T17:49:23.002Z,5.93
2024-03-03T17:51:51.552Z,6.88
2024-03-03T17:54:26.391Z,5.72
2024-03-03T17:56:54.893Z,8.68
2024-03-03T17:59:23.586Z,9.10
2024-03-03T18:01:52.214Z,5.68
2024-03-03T18:04:20.737Z,10.00
2024-03-03T18:06:49.277Z,6.45
2024-03-03T18:09:17.718Z,6.63
2024-03-03T18:11:47.733Z,7.43
2024-03-03T18:14:16.194Z,7.32
2024-03-03T18:16:44.744Z,9.05
2024-03-03T18:19:13.309Z,9.57
2024-03-03T18:21:45.494Z,8.52
2024-03-03T18:24:14.228Z,9.17
2024-03-03T18:26:43.213Z,9.73
2024-03-03T18:29:13.076Z,9.70
2024-03-03T18:31:41.956Z,8.00
2024-03-03T18:34:11.720Z,8.63
2024-03-03T18:36:40.271Z,13.03
2024-03-03T18:39:08.996Z,11.27
2024-03-03T18:41:37.458Z,9.93
2024-03-03T18:44:06.086Z,11.93
2024-03-03T18:46:36.443Z,15.35
2024-03-03T18:49:05.099Z,11.93
2024-03-03T18:51:34.484Z,10.38
2024-03-03T18:54:02.977Z,11.25
2024-03-03T18:56:31.412Z,21.40
2024-03-03T18:58:59.862Z,20.30
2024-03-03T19:01:28.401Z,17.57
2024-03-03T19:03:58.308Z,18.35
2024-03-03T19:06:26.784Z,20.48
2024-03-03T19:08:55.361Z,20.20
2024-03-03T19:11:23.895Z,18.80
2024-03-03T19:13:52.299Z,16.43
2024-03-03T19:16:23.262Z,15.65
2024-03-03T19:18:55.073Z,15.02
2024-03-03T19:21:24.925Z,11.35
2024-03-03T19:23:53.348Z,14.45
2024-03-03T19:26:21.846Z,10.80
2024-03-03T19:28:51.688Z,9.82
2024-03-03T19:31:23.225Z,12.60
2024-03-03T19:33:51.841Z,10.75
2024-03-03T19:36:20.362Z,8.73
2024-03-03T19:38:50.156Z,10.30
2024-03-03T19:41:19.520Z,7.93
2024-03-03T19:43:49.544Z,11.95
2024-03-03T19:46:18.081Z,7.95
2024-03-03T19:48:46.712Z,6.95
2024-03-03T19:51:25.323Z,11.43
2024-03-03T19:53:55.374Z,12.10
2024-03-03T19:56:23.849Z,10.68
2024-03-03T19:58:52.728Z,11.65
2024-03-03T20:01:21.412Z,11.40
2024-03-03T20:03:49.983Z,12.40
2024-03-03T20:06:18.637Z,14.40
2024-03-03T20:08:47.272Z,10.43
2024-03-03T20:11:17.258Z,10.43
2024-03-03T20:13:49.674Z,9.15
2024-03-03T20:16:20.882Z,9.60
2024-03-03T20:18:50.470Z,10.80
2024-03-03T20:21:19.141Z,7.93
2024-03-03T20:23:47.639Z,63.28
2024-03-03T20:26:17.672Z,30.48
2024-03-03T20:28:46.108Z,57.73
2024-03-03T20:31:14.789Z,124.43
2024-03-03T20:33:43.582Z,27.92
2024-03-03T20:36:14.499Z,14.73
2024-03-03T20:38:43.018Z,13.57
2024-03-03T20:41:12.411Z,12.90
2024-03-03T20:43:42.295Z,59.70
2024-03-03T20:46:11.046Z,104.15
2024-03-03T20:48:39.643Z,46.38
2024-03-03T20:51:08.670Z,62.38
2024-03-03T20:53:37.307Z,16.40
2024-03-03T20:56:06.669Z,79.00
2024-03-03T20:58:35.453Z,38.13
2024-03-03T21:01:05.627Z,40.95
2024-03-03T21:03:34.335Z,41.70
2024-03-03T21:06:04.008Z,21.40
2024-03-03T21:08:32.994Z,34.30
2024-03-03T21:11:01.647Z,49.15
2024-03-03T21:13:30.215Z,71.75
2024-03-03T21:15:58.841Z,58.25
2024-03-03T21:18:28.909Z,48.27
2024-03-03T21:20:57.454Z,25.02
2024-03-03T21:23:26.073Z,66.03
2024-03-03T21:25:55.076Z,26.52
2024-03-03T21:28:27.044Z,41.20
2024-03-03T21:30:55.675Z,22.00
2024-03-03T21:33:24.270Z,16.13
2024-03-03T21:35:54.088Z,43.70
2024-03-03T21:38:22.794Z,28.95
2024-03-03T21:40:51.378Z,32.30
2024-03-03T21:43:20.057Z,23.17
2024-03-03T21:45:48.554Z,18.42
2024-03-03T21:48:17.082Z,84.95
2024-03-03T21:50:45.596Z,19.98
2024-03-03T21:53:15.521Z,37.35
2024-03-03T21:55:45.626Z,20.00
2024-03-03T21:58:14.259Z,14.02
2024-03-03T22:00:42.707Z,13.00
2024-03-03T22:03:11.260Z,14.23
2024-03-03T22:05:39.768Z,17.83
2024-03-03T22:08:09.141Z,12.00
2024-03-03T22:10:39.146Z,11.32
2024-03-03T22:13:08.174Z,13.88
2024-03-03T22:15:36.830Z,11.73
2024-03-03T22:18:05.561Z,12.10
2024-03-03T22:20:33.985Z,13.30
2024-03-03T22:23:02.426Z,12.70
2024-03-03T22:25:30.956Z,11.10
2024-03-03T22:28:00.885Z,10.45
2024-03-03T22:30:28.353Z,14.63
2024-03-03T22:32:56.852Z,14.57
2024-03-03T22:35:25.354Z,10.07
2024-03-03T22:37:54.834Z,15.40
2024-03-03T22:40:23.307Z,11.07
2024-03-03T22:42:51.862Z,9.43
2024-03-03T22:45:21.985Z,11.97
2024-03-03T22:47:50.436Z,11.80
2024-03-03T22:50:18.971Z,12.80
2024-03-03T22:52:48.008Z,12.50
2024-03-03T22:55:16.578Z,12.88
2024-03-03T22:57:45.130Z,13.20
2024-03-03T23:00:15.261Z,11.05
2024-03-03T23:02:45.136Z,11.13
2024-03-03T23:05:13.767Z,12.40
2024-03-03T23:07:43.252Z,12.13
2024-03-03T23:10:12.474Z,9.53
2024-03-03T23:12:41.326Z,11.68
2024-03-03T23:15:10.843Z,10.55
2024-03-03T23:17:39.590Z,12.18
2024-03-03T23:20:10.493Z,11.00
2024-03-03T23:22:39.187Z,9.70
2024-03-03T23:25:07.906Z,11.70
2024-03-03T23:27:37.198Z,11.40
2024-03-03T23:30:08.205Z,13.88
2024-03-03T23:32:36.977Z,11.25
2024-03-03T23:35:08.752Z,13.33
2024-03-03T23:37:38.812Z,9.82
2024-03-03T23:40:07.956Z,13.68
2024-03-03T23:42:36.879Z,11.70
2024-03-03T23:45:05.543Z,12.18
2024-03-03T23:47:33.994Z,12.70
2024-03-03T23:50:02.522Z,13.75
2024-03-03T23:52:31.066Z,10.43
2024-03-03T23:55:01.114Z,9.77
2024-03-03T23:57:29.615Z,12.20
